NOZ200 ENBO-ENBR
Flight info
| Callsign | NOZ200 |
|---|---|
| Flight time | 1h 20m |
| Altitude | 38000 |
| Route | DISMU DCT LUNUR |
| Aircraft | B737/M-SDE2E3FGHIRWXY/LB1 |
Departure
| Time | 2026-04-23 18:07 |
|---|---|
| Airport | Bodø Airport (ENBO) |
Arrival
| Time | 2026-04-23 19:27 |
|---|---|
| Airport | Bergen Airport, Flesland (ENBR) |
| Time | Latitude | Longitude | Altitude | Speed | Heading |
|---|---|---|---|---|---|
| 2026-04-23 17:43 | 67.27174 | 14.36614 | 46 ft | 0 kts | 68° |
| 2026-04-23 18:01 | 67.27174 | 14.36611 | 45 ft | 3 kts | 68° |
| 2026-04-23 18:01 | 67.27166 | 14.36564 | 44 ft | 3 kts | 68° |
| 2026-04-23 18:01 | 67.27159 | 14.36519 | 45 ft | 3 kts | 68° |
| 2026-04-23 18:02 | 67.27153 | 14.36478 | 43 ft | 3 kts | 81° |
| 2026-04-23 18:02 | 67.27154 | 14.36433 | 46 ft | 2 kts | 117° |
| 2026-04-23 18:02 | 67.27165 | 14.36398 | 43 ft | 3 kts | 153° |
| 2026-04-23 18:02 | 67.27173 | 14.36390 | 43 ft | 0 kts | 162° |
| 2026-04-23 18:04 | 67.27164 | 14.36394 | 43 ft | 5 kts | 171° |
| 2026-04-23 18:04 | 67.27100 | 14.36425 | 45 ft | 12 kts | 168° |
| 2026-04-23 18:04 | 67.27053 | 14.36560 | 43 ft | 12 kts | 83° |
| 2026-04-23 18:05 | 67.27068 | 14.36768 | 45 ft | 12 kts | 78° |
| 2026-04-23 18:05 | 67.27085 | 14.36990 | 48 ft | 14 kts | 79° |
| 2026-04-23 18:05 | 67.27106 | 14.37254 | 52 ft | 16 kts | 78° |
| 2026-04-23 18:05 | 67.27131 | 14.37542 | 48 ft | 16 kts | 78° |
| 2026-04-23 18:06 | 67.27154 | 14.37821 | 56 ft | 16 kts | 78° |
| 2026-04-23 18:06 | 67.27160 | 14.38095 | 51 ft | 15 kts | 90° |
| 2026-04-23 18:06 | 67.27148 | 14.38336 | 52 ft | 13 kts | 130° |
| 2026-04-23 18:06 | 67.27075 | 14.38339 | 48 ft | 12 kts | 240° |
| 2026-04-23 18:07 | 67.27053 | 14.38121 | 50 ft | 23 kts | 257° |
| 2026-04-23 18:07 | 67.26968 | 14.37082 | 43 ft | 105 kts | 258° |
| 2026-04-23 18:07 | 67.26761 | 14.34581 | 286 ft | 165 kts | 260° |
| 2026-04-23 18:07 | 67.26509 | 14.31535 | 1235 ft | 184 kts | 263° |
| 2026-04-23 18:08 | 67.26343 | 14.29335 | 1966 ft | 187 kts | 264° |
| 2026-04-23 18:08 | 67.25585 | 14.24972 | 2838 ft | 231 kts | 226° |
| 2026-04-23 18:08 | 67.24267 | 14.22381 | 3584 ft | 247 kts | 219° |
| 2026-04-23 18:08 | 67.22829 | 14.19607 | 4310 ft | 264 kts | 220° |
| 2026-04-23 18:09 | 67.21340 | 14.16674 | 5400 ft | 272 kts | 221° |
| 2026-04-23 18:09 | 67.19821 | 14.13630 | 6467 ft | 282 kts | 223° |
| 2026-04-23 18:09 | 67.18283 | 14.10510 | 7555 ft | 286 kts | 224° |
| 2026-04-23 18:09 | 67.16723 | 14.07321 | 8748 ft | 287 kts | 225° |
| 2026-04-23 18:10 | 67.15152 | 14.04095 | 9898 ft | 291 kts | 226° |
| 2026-04-23 18:10 | 67.13546 | 14.00790 | 10696 ft | 305 kts | 227° |
| 2026-04-23 18:10 | 67.11681 | 13.97561 | 10956 ft | 348 kts | 210° |
| 2026-04-23 18:10 | 67.09217 | 13.96215 | 11615 ft | 375 kts | 188° |
| 2026-04-23 18:11 | 67.06577 | 13.95959 | 12460 ft | 385 kts | 186° |
| 2026-04-23 18:11 | 67.03861 | 13.95813 | 13299 ft | 395 kts | 186° |
| 2026-04-23 18:11 | 67.01081 | 13.95667 | 14106 ft | 404 kts | 187° |
| 2026-04-23 18:11 | 66.98246 | 13.95484 | 14896 ft | 410 kts | 187° |
| 2026-04-23 18:12 | 66.95379 | 13.95263 | 15795 ft | 414 kts | 188° |
| 2026-04-23 18:12 | 66.92522 | 13.95011 | 16619 ft | 421 kts | 188° |
| 2026-04-23 18:12 | 66.89563 | 13.94729 | 17406 ft | 428 kts | 189° |
| 2026-04-23 18:12 | 66.86575 | 13.94437 | 18317 ft | 432 kts | 189° |
| 2026-04-23 18:13 | 66.83559 | 13.94139 | 19049 ft | 437 kts | 189° |
| 2026-04-23 18:13 | 66.80504 | 13.93841 | 19787 ft | 440 kts | 189° |
| 2026-04-23 18:13 | 66.77433 | 13.93545 | 20595 ft | 443 kts | 189° |
| 2026-04-23 18:13 | 66.74336 | 13.93244 | 21312 ft | 448 kts | 189° |
| 2026-04-23 18:14 | 66.71204 | 13.92940 | 22007 ft | 454 kts | 189° |
| 2026-04-23 18:14 | 66.68025 | 13.92633 | 22673 ft | 459 kts | 189° |
| 2026-04-23 18:14 | 66.64862 | 13.92333 | 23389 ft | 463 kts | 189° |
| 2026-04-23 18:14 | 66.61630 | 13.92026 | 24025 ft | 466 kts | 189° |
| 2026-04-23 18:15 | 66.58388 | 13.91713 | 24620 ft | 467 kts | 190° |
| 2026-04-23 18:15 | 66.55199 | 13.90663 | 25152 ft | 459 kts | 201° |
| 2026-04-23 18:15 | 66.52182 | 13.88238 | 25718 ft | 452 kts | 211° |
| 2026-04-23 18:15 | 66.49399 | 13.84764 | 26271 ft | 442 kts | 221° |
| 2026-04-23 18:16 | 66.46870 | 13.80441 | 26784 ft | 440 kts | 225° |
| 2026-04-23 18:16 | 66.44357 | 13.75983 | 27221 ft | 446 kts | 225° |
| 2026-04-23 18:16 | 66.41819 | 13.71470 | 27701 ft | 449 kts | 224° |
| 2026-04-23 18:17 | 66.36714 | 13.62497 | 28721 ft | 455 kts | 224° |
| 2026-04-23 18:17 | 66.34106 | 13.57966 | 29180 ft | 459 kts | 224° |
| 2026-04-23 18:17 | 66.31475 | 13.53429 | 29632 ft | 462 kts | 223° |
| 2026-04-23 18:17 | 66.28817 | 13.48869 | 30078 ft | 466 kts | 223° |
| 2026-04-23 18:18 | 66.26144 | 13.44303 | 30469 ft | 468 kts | 223° |
| 2026-04-23 18:18 | 66.23451 | 13.39715 | 30792 ft | 472 kts | 223° |
| 2026-04-23 18:18 | 66.20737 | 13.35104 | 31140 ft | 474 kts | 222° |
| 2026-04-23 18:18 | 66.18009 | 13.30486 | 31549 ft | 474 kts | 222° |
| 2026-04-23 18:19 | 66.15295 | 13.25906 | 32100 ft | 472 kts | 222° |
| 2026-04-23 18:19 | 66.12589 | 13.21353 | 32596 ft | 470 kts | 222° |
| 2026-04-23 18:19 | 66.09886 | 13.16813 | 33003 ft | 470 kts | 222° |
| 2026-04-23 18:19 | 66.07226 | 13.12348 | 33435 ft | 470 kts | 222° |
| 2026-04-23 18:20 | 66.04527 | 13.07832 | 33923 ft | 467 kts | 221° |
| 2026-04-23 18:20 | 66.01843 | 13.03352 | 34329 ft | 466 kts | 221° |
| 2026-04-23 18:20 | 65.99155 | 12.98875 | 34645 ft | 467 kts | 221° |
| 2026-04-23 18:20 | 65.96465 | 12.94403 | 34891 ft | 468 kts | 221° |
| 2026-04-23 18:21 | 65.93774 | 12.89944 | 35251 ft | 466 kts | 221° |
| 2026-04-23 18:21 | 65.91084 | 12.85503 | 35668 ft | 464 kts | 221° |
| 2026-04-23 18:21 | 65.88414 | 12.81105 | 36034 ft | 463 kts | 221° |
| 2026-04-23 18:21 | 65.85743 | 12.76715 | 36340 ft | 463 kts | 220° |
| 2026-04-23 18:22 | 65.83069 | 12.72328 | 36672 ft | 463 kts | 220° |
| 2026-04-23 18:22 | 65.80401 | 12.67964 | 37026 ft | 461 kts | 220° |
| 2026-04-23 18:22 | 65.77773 | 12.63680 | 37393 ft | 459 kts | 220° |
| 2026-04-23 18:22 | 65.75118 | 12.59361 | 37709 ft | 459 kts | 220° |
| 2026-04-23 18:23 | 65.73359 | 12.56504 | 37893 ft | 459 kts | 220° |
| 2026-04-23 18:23 | 65.67130 | 12.46420 | 38091 ft | 461 kts | 220° |
| 2026-04-23 18:24 | 65.59163 | 12.33626 | 38088 ft | 456 kts | 219° |
| 2026-04-23 18:25 | 65.51305 | 12.21094 | 38095 ft | 452 kts | 219° |
| 2026-04-23 18:25 | 65.46061 | 12.12779 | 38101 ft | 450 kts | 219° |
| 2026-04-23 18:26 | 65.40822 | 12.04512 | 38121 ft | 450 kts | 219° |
| 2026-04-23 18:26 | 65.35577 | 11.96275 | 38098 ft | 451 kts | 219° |
| 2026-04-23 18:27 | 65.30316 | 11.88054 | 38102 ft | 452 kts | 219° |
| 2026-04-23 18:27 | 65.25071 | 11.79896 | 38118 ft | 454 kts | 219° |
| 2026-04-23 18:28 | 65.19760 | 11.71678 | 38120 ft | 456 kts | 218° |
| 2026-04-23 18:28 | 65.14428 | 11.63468 | 38121 ft | 457 kts | 218° |
| 2026-04-23 18:29 | 65.09073 | 11.55263 | 38140 ft | 458 kts | 218° |
| 2026-04-23 18:29 | 65.03700 | 11.47071 | 38134 ft | 459 kts | 218° |
| 2026-04-23 18:30 | 64.98325 | 11.38917 | 38145 ft | 459 kts | 218° |
| 2026-04-23 18:30 | 64.92977 | 11.30841 | 38156 ft | 459 kts | 218° |
| 2026-04-23 18:31 | 64.87600 | 11.22761 | 38149 ft | 458 kts | 217° |
| 2026-04-23 18:31 | 64.82224 | 11.14721 | 38151 ft | 457 kts | 217° |
| 2026-04-23 18:32 | 64.76859 | 11.06735 | 38153 ft | 456 kts | 217° |
| 2026-04-23 18:32 | 64.71494 | 10.98788 | 38154 ft | 456 kts | 217° |
| 2026-04-23 18:33 | 64.66137 | 10.90888 | 38156 ft | 455 kts | 217° |
| 2026-04-23 18:33 | 64.60783 | 10.83031 | 38160 ft | 454 kts | 217° |
| 2026-04-23 18:34 | 64.55426 | 10.75206 | 38161 ft | 454 kts | 217° |
| 2026-04-23 18:34 | 64.50115 | 10.67486 | 38173 ft | 454 kts | 217° |
| 2026-04-23 18:35 | 64.44763 | 10.59742 | 38178 ft | 453 kts | 216° |
| 2026-04-23 18:35 | 64.39405 | 10.52024 | 38164 ft | 453 kts | 216° |
| 2026-04-23 18:36 | 64.34047 | 10.44343 | 38184 ft | 453 kts | 216° |
| 2026-04-23 18:36 | 64.28688 | 10.36697 | 38185 ft | 453 kts | 216° |
| 2026-04-23 18:37 | 64.23368 | 10.29140 | 38189 ft | 452 kts | 216° |
| 2026-04-23 18:37 | 64.18013 | 10.21569 | 38198 ft | 452 kts | 216° |
| 2026-04-23 18:38 | 64.12654 | 10.14026 | 38203 ft | 452 kts | 216° |
| 2026-04-23 18:38 | 64.07294 | 10.06516 | 38203 ft | 452 kts | 216° |
| 2026-04-23 18:39 | 64.01927 | 9.99032 | 38204 ft | 452 kts | 215° |
| 2026-04-23 18:39 | 63.96602 | 9.91641 | 38210 ft | 451 kts | 215° |
| 2026-04-23 18:40 | 63.91242 | 9.84233 | 38215 ft | 451 kts | 215° |
| 2026-04-23 18:40 | 63.85882 | 9.76858 | 38217 ft | 450 kts | 215° |
| 2026-04-23 18:41 | 63.80517 | 9.69512 | 38218 ft | 450 kts | 214° |
| 2026-04-23 18:41 | 63.75156 | 9.62202 | 38208 ft | 450 kts | 214° |
| 2026-04-23 18:42 | 63.69830 | 9.54973 | 38215 ft | 449 kts | 214° |
| 2026-04-23 18:42 | 63.64472 | 9.47733 | 38209 ft | 449 kts | 214° |
| 2026-04-23 18:43 | 63.59109 | 9.40519 | 38216 ft | 448 kts | 214° |
| 2026-04-23 18:43 | 63.53755 | 9.33347 | 38225 ft | 448 kts | 214° |
| 2026-04-23 18:44 | 63.48405 | 9.26212 | 38230 ft | 448 kts | 214° |
| 2026-04-23 18:44 | 63.43050 | 9.19105 | 38239 ft | 447 kts | 214° |
| 2026-04-23 18:45 | 63.37710 | 9.12047 | 38247 ft | 446 kts | 214° |
| 2026-04-23 18:45 | 63.32409 | 9.05072 | 38251 ft | 445 kts | 214° |
| 2026-04-23 18:46 | 63.27081 | 8.98095 | 38262 ft | 444 kts | 214° |
| 2026-04-23 18:46 | 63.21759 | 8.91152 | 38260 ft | 443 kts | 214° |
| 2026-04-23 18:47 | 63.16445 | 8.84253 | 38267 ft | 442 kts | 213° |
| 2026-04-23 18:47 | 63.11138 | 8.77383 | 38278 ft | 441 kts | 213° |
| 2026-04-23 18:48 | 63.05844 | 8.70557 | 38268 ft | 441 kts | 213° |
| 2026-04-23 18:48 | 63.00587 | 8.63815 | 38272 ft | 440 kts | 213° |
| 2026-04-23 18:49 | 62.95265 | 8.57015 | 38285 ft | 439 kts | 213° |
| 2026-04-23 18:49 | 62.90025 | 8.50353 | 38285 ft | 438 kts | 213° |
| 2026-04-23 18:50 | 62.85642 | 8.44802 | 38280 ft | 437 kts | 213° |
| 2026-04-23 18:50 | 62.79491 | 8.37043 | 38293 ft | 436 kts | 213° |
| 2026-04-23 18:51 | 62.74238 | 8.30445 | 38283 ft | 435 kts | 212° |
| 2026-04-23 18:51 | 62.68991 | 8.23885 | 38287 ft | 434 kts | 212° |
| 2026-04-23 18:52 | 62.63788 | 8.17404 | 38287 ft | 433 kts | 212° |
| 2026-04-23 18:52 | 62.58558 | 8.10916 | 38287 ft | 432 kts | 212° |
| 2026-04-23 18:53 | 62.53341 | 8.04469 | 38297 ft | 431 kts | 212° |
| 2026-04-23 18:53 | 62.48128 | 7.98054 | 38303 ft | 431 kts | 212° |
| 2026-04-23 18:54 | 62.42921 | 7.91673 | 38307 ft | 431 kts | 212° |
| 2026-04-23 18:54 | 62.37738 | 7.85346 | 38305 ft | 431 kts | 211° |
| 2026-04-23 18:55 | 62.32521 | 7.79007 | 38308 ft | 431 kts | 211° |
| 2026-04-23 18:55 | 62.27286 | 7.72667 | 38314 ft | 432 kts | 211° |
| 2026-04-23 18:56 | 62.22931 | 7.67413 | 38313 ft | 433 kts | 211° |
| 2026-04-23 18:56 | 62.16802 | 7.60050 | 38319 ft | 435 kts | 211° |
| 2026-04-23 18:57 | 62.11514 | 7.53725 | 38323 ft | 437 kts | 211° |
| 2026-04-23 18:57 | 62.06201 | 7.47395 | 38322 ft | 438 kts | 211° |
| 2026-04-23 18:58 | 62.00872 | 7.41071 | 38349 ft | 439 kts | 211° |
| 2026-04-23 18:58 | 61.95527 | 7.34756 | 38366 ft | 440 kts | 211° |
| 2026-04-23 18:59 | 61.90174 | 7.28455 | 38365 ft | 440 kts | 211° |
| 2026-04-23 18:59 | 61.84866 | 7.22234 | 38386 ft | 439 kts | 211° |
| 2026-04-23 19:00 | 61.79528 | 7.16000 | 38387 ft | 438 kts | 212° |
| 2026-04-23 19:00 | 61.74203 | 7.09808 | 38388 ft | 437 kts | 212° |
| 2026-04-23 19:01 | 61.68886 | 7.03648 | 38364 ft | 435 kts | 212° |
| 2026-04-23 19:01 | 61.64482 | 6.98566 | 38366 ft | 434 kts | 211° |
| 2026-04-23 19:02 | 61.59197 | 6.92489 | 38350 ft | 432 kts | 211° |
| 2026-04-23 19:02 | 61.53083 | 6.85487 | 38347 ft | 429 kts | 211° |
| 2026-04-23 19:03 | 61.48700 | 6.80488 | 38280 ft | 427 kts | 211° |
| 2026-04-23 19:03 | 61.46118 | 6.77549 | 37673 ft | 428 kts | 211° |
| 2026-04-23 19:03 | 61.43514 | 6.74594 | 37070 ft | 424 kts | 211° |
| 2026-04-23 19:03 | 61.40920 | 6.71654 | 36408 ft | 423 kts | 211° |
| 2026-04-23 19:04 | 61.38332 | 6.68726 | 35641 ft | 424 kts | 211° |
| 2026-04-23 19:04 | 61.34893 | 6.64842 | 34632 ft | 425 kts | 211° |
| 2026-04-23 19:04 | 61.32291 | 6.61911 | 33762 ft | 426 kts | 211° |
| 2026-04-23 19:04 | 61.30541 | 6.59943 | 33417 ft | 421 kts | 211° |
| 2026-04-23 19:05 | 61.27972 | 6.57062 | 32775 ft | 417 kts | 211° |
| 2026-04-23 19:05 | 61.25470 | 6.54259 | 32217 ft | 412 kts | 211° |
| 2026-04-23 19:05 | 61.22966 | 6.51459 | 31679 ft | 406 kts | 211° |
| 2026-04-23 19:05 | 61.20490 | 6.48696 | 31110 ft | 402 kts | 211° |
| 2026-04-23 19:06 | 61.18039 | 6.45963 | 30565 ft | 398 kts | 211° |
| 2026-04-23 19:06 | 61.15605 | 6.43254 | 29971 ft | 394 kts | 211° |
| 2026-04-23 19:06 | 61.13207 | 6.40592 | 29400 ft | 389 kts | 211° |
| 2026-04-23 19:06 | 61.10835 | 6.37961 | 28828 ft | 384 kts | 211° |
| 2026-04-23 19:07 | 61.08488 | 6.35364 | 28280 ft | 380 kts | 211° |
| 2026-04-23 19:07 | 61.06174 | 6.32806 | 27716 ft | 376 kts | 211° |
| 2026-04-23 19:07 | 61.03873 | 6.30265 | 27170 ft | 373 kts | 211° |
| 2026-04-23 19:07 | 61.01588 | 6.27748 | 26605 ft | 371 kts | 211° |
| 2026-04-23 19:08 | 60.99321 | 6.25254 | 26068 ft | 368 kts | 211° |
| 2026-04-23 19:08 | 60.97101 | 6.22815 | 25544 ft | 366 kts | 211° |
| 2026-04-23 19:08 | 60.94857 | 6.20354 | 25006 ft | 365 kts | 211° |
| 2026-04-23 19:08 | 60.92621 | 6.17905 | 24466 ft | 364 kts | 211° |
| 2026-04-23 19:09 | 60.90387 | 6.15462 | 23895 ft | 364 kts | 211° |
| 2026-04-23 19:09 | 60.88150 | 6.13020 | 23274 ft | 363 kts | 211° |
| 2026-04-23 19:09 | 60.85927 | 6.10600 | 22700 ft | 361 kts | 211° |
| 2026-04-23 19:09 | 60.83694 | 6.08259 | 22128 ft | 361 kts | 206° |
| 2026-04-23 19:10 | 60.81310 | 6.06568 | 21428 ft | 365 kts | 199° |
| 2026-04-23 19:10 | 60.78851 | 6.05260 | 20881 ft | 364 kts | 197° |
| 2026-04-23 19:10 | 60.76406 | 6.03990 | 20314 ft | 362 kts | 198° |
| 2026-04-23 19:10 | 60.73980 | 6.02650 | 19760 ft | 359 kts | 199° |
| 2026-04-23 19:11 | 60.71644 | 6.01310 | 19232 ft | 348 kts | 199° |
| 2026-04-23 19:11 | 60.69341 | 5.99974 | 18693 ft | 344 kts | 199° |
| 2026-04-23 19:11 | 60.67054 | 5.98642 | 18050 ft | 338 kts | 199° |
| 2026-04-23 19:11 | 60.64810 | 5.97337 | 17528 ft | 332 kts | 200° |
| 2026-04-23 19:12 | 60.62602 | 5.96053 | 17018 ft | 329 kts | 200° |
| 2026-04-23 19:12 | 60.60408 | 5.94779 | 16513 ft | 327 kts | 200° |
| 2026-04-23 19:12 | 60.58221 | 5.93511 | 16005 ft | 326 kts | 200° |
| 2026-04-23 19:12 | 60.56041 | 5.92250 | 15507 ft | 325 kts | 200° |
| 2026-04-23 19:13 | 60.53866 | 5.90994 | 15004 ft | 325 kts | 200° |
| 2026-04-23 19:13 | 60.51688 | 5.89735 | 14583 ft | 327 kts | 200° |
| 2026-04-23 19:13 | 60.49496 | 5.88472 | 14456 ft | 328 kts | 200° |
| 2026-04-23 19:13 | 60.47329 | 5.87227 | 14373 ft | 328 kts | 200° |
| 2026-04-23 19:14 | 60.45156 | 5.85985 | 14332 ft | 319 kts | 200° |
| 2026-04-23 19:14 | 60.43054 | 5.84783 | 14375 ft | 311 kts | 200° |
| 2026-04-23 19:14 | 60.40974 | 5.83592 | 14361 ft | 311 kts | 200° |
| 2026-04-23 19:14 | 60.38886 | 5.82397 | 14364 ft | 314 kts | 200° |
| 2026-04-23 19:15 | 60.36758 | 5.81176 | 14109 ft | 322 kts | 200° |
| 2026-04-23 19:15 | 60.34604 | 5.79948 | 13755 ft | 319 kts | 200° |
| 2026-04-23 19:15 | 60.32483 | 5.78745 | 13356 ft | 314 kts | 200° |
| 2026-04-23 19:15 | 60.30414 | 5.77574 | 12986 ft | 303 kts | 200° |
| 2026-04-23 19:16 | 60.28438 | 5.76458 | 12718 ft | 286 kts | 200° |
| 2026-04-23 19:16 | 60.26595 | 5.75419 | 12344 ft | 273 kts | 201° |
| 2026-04-23 19:16 | 60.24789 | 5.74391 | 11971 ft | 268 kts | 201° |
| 2026-04-23 19:17 | 60.21183 | 5.72339 | 11236 ft | 274 kts | 201° |
| 2026-04-23 19:17 | 60.19341 | 5.71299 | 10809 ft | 275 kts | 200° |
| 2026-04-23 19:17 | 60.17424 | 5.71008 | 10321 ft | 282 kts | 173° |
| 2026-04-23 19:17 | 60.15550 | 5.72055 | 9889 ft | 279 kts | 161° |
| 2026-04-23 19:18 | 60.13736 | 5.73415 | 9411 ft | 277 kts | 159° |
| 2026-04-23 19:18 | 60.11915 | 5.74593 | 8915 ft | 275 kts | 174° |
| 2026-04-23 19:18 | 60.10053 | 5.74698 | 8455 ft | 269 kts | 192° |
| 2026-04-23 19:18 | 60.08406 | 5.73248 | 7921 ft | 254 kts | 227° |
| 2026-04-23 19:19 | 60.06967 | 5.67421 | 6975 ft | 228 kts | 271° |
| 2026-04-23 19:19 | 60.07061 | 5.64336 | 6502 ft | 218 kts | 287° |
| 2026-04-23 19:20 | 60.07691 | 5.58645 | 5486 ft | 210 kts | 290° |
| 2026-04-23 19:20 | 60.08014 | 5.55828 | 5244 ft | 206 kts | 289° |
| 2026-04-23 19:20 | 60.08331 | 5.53026 | 5030 ft | 212 kts | 289° |
| 2026-04-23 19:20 | 60.08657 | 5.50092 | 4819 ft | 219 kts | 288° |
| 2026-04-23 19:21 | 60.08986 | 5.47089 | 4605 ft | 221 kts | 288° |
| 2026-04-23 19:21 | 60.09636 | 5.41054 | 4155 ft | 222 kts | 287° |
| 2026-04-23 19:21 | 60.09926 | 5.38016 | 3938 ft | 222 kts | 286° |
| 2026-04-23 19:22 | 60.10209 | 5.34973 | 3720 ft | 221 kts | 286° |
| 2026-04-23 19:22 | 60.10490 | 5.31981 | 3488 ft | 216 kts | 288° |
| 2026-04-23 19:22 | 60.12260 | 5.28509 | 3123 ft | 159 kts | 340° |
| 2026-04-23 19:23 | 60.13246 | 5.27797 | 2954 ft | 145 kts | 345° |
| 2026-04-23 19:23 | 60.14205 | 5.27219 | 2963 ft | 149 kts | 346° |
| 2026-04-23 19:23 | 60.15200 | 5.26692 | 2894 ft | 147 kts | 348° |
| 2026-04-23 19:24 | 60.17176 | 5.25933 | 2502 ft | 141 kts | 351° |
| 2026-04-23 19:24 | 60.18139 | 5.25603 | 2312 ft | 140 kts | 351° |
| 2026-04-23 19:24 | 60.20057 | 5.24953 | 1924 ft | 139 kts | 351° |
| 2026-04-23 19:25 | 60.21968 | 5.24307 | 1525 ft | 139 kts | 351° |
| 2026-04-23 19:25 | 60.23832 | 5.23680 | 1122 ft | 128 kts | 349° |
| 2026-04-23 19:26 | 60.25575 | 5.23091 | 748 ft | 128 kts | 348° |
| 2026-04-23 19:26 | 60.26451 | 5.22815 | 559 ft | 127 kts | 348° |
| 2026-04-23 19:27 | 60.28199 | 5.22196 | 215 ft | 128 kts | 349° |
| 2026-04-23 19:27 | 60.29685 | 5.21718 | 145 ft | 23 kts | 18° |
| 2026-04-23 19:28 | 60.29720 | 5.21913 | 148 ft | 1 kts | 83° |
| 2026-04-23 19:28 | 60.29725 | 5.21975 | 148 ft | 6 kts | 82° |
| 2026-04-23 19:29 | 60.29730 | 5.22077 | 147 ft | 11 kts | 97° |
| 2026-04-23 19:29 | 60.29510 | 5.22198 | 155 ft | 28 kts | 171° |
| 2026-04-23 19:30 | 60.29167 | 5.22320 | 177 ft | 20 kts | 170° |
| 2026-04-23 19:30 | 60.29031 | 5.22363 | 175 ft | 19 kts | 171° |
| 2026-04-23 19:30 | 60.28803 | 5.22441 | 174 ft | 11 kts | 169° |
| 2026-04-23 19:31 | 60.28733 | 5.22474 | 173 ft | 10 kts | 148° |
| 2026-04-23 19:31 | 60.28719 | 5.22607 | 173 ft | 12 kts | 83° |
| 2026-04-23 19:31 | 60.28733 | 5.22808 | 174 ft | 11 kts | 81° |
| 2026-04-23 19:31 | 60.28740 | 5.22897 | 175 ft | 2 kts | 81° |
| 2026-04-23 19:32 | 60.28741 | 5.22906 | 175 ft | 0 kts | 81° |